createdAt,value
2022-09-26T00:01:34.321Z,14.38
2022-09-26T00:04:15.757Z,14.35
2022-09-26T00:06:43.320Z,13.10
2022-09-26T00:09:11.656Z,13.27
2022-09-26T00:11:39.402Z,14.27
2022-09-26T00:14:18.817Z,14.65
2022-09-26T00:16:47.686Z,13.90
2022-09-26T00:19:15.418Z,13.75
2022-09-26T00:21:42.753Z,14.15
2022-09-26T00:24:10.311Z,15.55
2022-09-26T00:26:38.285Z,14.77
2022-09-26T00:29:08.780Z,14.32
2022-09-26T00:31:40.011Z,14.82
2022-09-26T00:34:07.723Z,13.88
2022-09-26T00:36:38.345Z,13.32
2022-09-26T00:39:10.753Z,14.55
2022-09-26T00:41:38.646Z,14.02
2022-09-26T00:44:33.878Z,13.82
2022-09-26T00:47:01.853Z,12.75
2022-09-26T00:50:26.168Z,13.40
2022-09-26T00:52:59.079Z,12.25
2022-09-26T00:55:31.443Z,13.55
2022-09-26T00:58:20.030Z,14.07
2022-09-26T01:00:48.297Z,13.80
2022-09-26T01:03:16.932Z,13.30
2022-09-26T01:05:45.432Z,14.07
2022-09-26T01:08:14.559Z,13.85
2022-09-26T01:10:43.065Z,14.38
2022-09-26T01:13:10.366Z,13.77
2022-09-26T01:15:38.933Z,13.90
2022-09-26T01:18:07.514Z,13.20
2022-09-26T01:20:44.095Z,14.55
2022-09-26T01:23:23.900Z,14.43
2022-09-26T01:26:14.173Z,14.40
2022-09-26T01:29:02.936Z,14.63
2022-09-26T01:32:24.661Z,14.35
2022-09-26T01:35:12.518Z,14.82
2022-09-26T01:38:15.665Z,14.25
2022-09-26T01:40:56.377Z,15.02
2022-09-26T01:43:36.115Z,14.05
2022-09-26T01:46:22.547Z,15.73
2022-09-26T01:48:54.847Z,14.90
2022-09-26T01:51:49.015Z,14.98
2022-09-26T01:54:28.684Z,15.13
2022-09-26T01:56:58.358Z,16.05
2022-09-26T01:59:34.183Z,15.20
2022-09-26T02:02:08.308Z,15.45
2022-09-26T02:04:39.128Z,15.70
2022-09-26T02:07:14.204Z,15.10
2022-09-26T02:10:13.174Z,15.48
2022-09-26T02:12:41.961Z,15.73
2022-09-26T02:15:11.874Z,15.07
2022-09-26T02:17:44.419Z,15.82
2022-09-26T02:20:17.215Z,15.98
2022-09-26T02:22:44.669Z,16.92
2022-09-26T02:25:15.718Z,15.80
2022-09-26T02:27:43.303Z,17.65
2022-09-26T02:30:19.708Z,16.10
2022-09-26T02:32:47.402Z,16.80
2022-09-26T02:35:33.528Z,17.30
2022-09-26T02:38:02.584Z,17.10
2022-09-26T02:40:51.262Z,17.08
2022-09-26T02:43:24.083Z,17.90
2022-09-26T02:45:57.439Z,17.33
2022-09-26T02:48:30.764Z,16.55
2022-09-26T02:51:16.980Z,17.85
2022-09-26T02:53:47.499Z,16.73
2022-09-26T02:56:23.503Z,17.45
2022-09-26T02:59:04.856Z,16.23
2022-09-26T03:01:54.026Z,16.17
2022-09-26T03:04:34.292Z,15.60
2022-09-26T03:07:07.636Z,18.10
2022-09-26T03:09:36.976Z,16.23
2022-09-26T03:12:06.455Z,16.17
2022-09-26T03:14:34.959Z,15.27
2022-09-26T03:17:03.368Z,14.82
2022-09-26T03:19:41.923Z,15.80
2022-09-26T03:22:09.771Z,14.80
2022-09-26T03:24:41.015Z,14.52
2022-09-26T03:27:11.841Z,15.95
2022-09-26T03:30:02.880Z,15.93
2022-09-26T03:32:30.508Z,15.10
2022-09-26T03:34:58.253Z,15.32
2022-09-26T03:37:25.672Z,15.60
2022-09-26T03:39:53.043Z,15.23
2022-09-26T03:42:22.648Z,15.48
2022-09-26T03:44:50.076Z,15.93
2022-09-26T03:47:18.986Z,15.15
2022-09-26T03:49:47.657Z,14.05
2022-09-26T03:52:16.946Z,16.27
2022-09-26T03:54:45.113Z,15.77
2022-09-26T03:57:13.348Z,15.85
2022-09-26T03:59:41.030Z,15.55
2022-09-26T04:02:08.550Z,15.45
2022-09-26T04:04:37.248Z,16.23
2022-09-26T04:07:05.105Z,15.65
2022-09-26T04:09:32.527Z,16.30
2022-09-26T04:12:00.700Z,16.08
2022-09-26T04:14:28.033Z,16.10
2022-09-26T04:16:56.051Z,17.73
2022-09-26T04:19:23.918Z,17.55
2022-09-26T04:21:52.134Z,17.87
2022-09-26T04:24:21.289Z,18.55
2022-09-26T04:26:48.919Z,18.10
2022-09-26T04:29:16.757Z,17.73
2022-09-26T04:31:45.545Z,17.98
2022-09-26T04:34:14.888Z,18.37
2022-09-26T04:36:42.744Z,19.50
2022-09-26T04:39:10.544Z,19.85
2022-09-26T04:41:38.709Z,19.05
2022-09-26T04:44:06.067Z,19.17
2022-09-26T04:46:33.726Z,19.98
2022-09-26T04:49:02.148Z,17.90
2022-09-26T04:51:31.570Z,19.10
2022-09-26T04:53:59.057Z,18.70
2022-09-26T04:56:27.951Z,18.80
2022-09-26T04:58:57.498Z,18.02
2022-09-26T05:01:26.016Z,17.52
2022-09-26T05:03:57.610Z,18.48
2022-09-26T05:06:25.268Z,17.92
2022-09-26T05:08:54.721Z,20.15
2022-09-26T05:11:24.443Z,18.92
2022-09-26T05:13:53.928Z,20.15
2022-09-26T05:16:22.589Z,20.52
2022-09-26T05:18:51.841Z,19.25
2022-09-26T05:21:19.504Z,19.67
2022-09-26T05:24:05.736Z,19.20
2022-09-26T05:26:40.680Z,19.37
2022-09-26T05:29:09.472Z,20.37
2022-09-26T05:31:39.418Z,20.25
2022-09-26T05:34:09.780Z,20.75
2022-09-26T05:36:37.485Z,20.33
2022-09-26T05:39:06.006Z,22.13
2022-09-26T05:41:33.795Z,22.37
2022-09-26T05:44:02.165Z,22.85
2022-09-26T05:46:31.429Z,22.35
2022-09-26T05:49:00.047Z,23.42
2022-09-26T05:51:29.326Z,18.35
2022-09-26T05:53:57.369Z,23.20
2022-09-26T05:56:48.984Z,23.67
2022-09-26T05:59:19.034Z,23.75
2022-09-26T06:01:48.176Z,23.02
2022-09-26T06:04:16.520Z,22.77
2022-09-26T06:06:48.691Z,24.83
2022-09-26T06:09:17.509Z,23.15
2022-09-26T06:11:54.092Z,24.55
2022-09-26T06:14:24.398Z,25.30
2022-09-26T06:16:51.916Z,24.92
2022-09-26T06:19:22.983Z,24.08
2022-09-26T06:21:50.990Z,23.40
2022-09-26T06:24:19.268Z,23.25
2022-09-26T06:26:47.408Z,23.95
2022-09-26T06:29:15.179Z,24.73
2022-09-26T06:31:43.264Z,28.55
2022-09-26T06:34:14.577Z,29.63
2022-09-26T06:36:42.708Z,27.20
2022-09-26T06:39:10.248Z,29.87
2022-09-26T06:41:37.748Z,30.48
2022-09-26T06:44:09.232Z,34.97
2022-09-26T06:46:39.097Z,33.22
2022-09-26T06:49:07.899Z,26.17
2022-09-26T06:51:38.233Z,23.25
2022-09-26T06:54:05.824Z,23.75
2022-09-26T06:56:33.425Z,23.33
2022-09-26T06:59:00.837Z,23.75
2022-09-26T07:01:28.793Z,25.12
2022-09-26T07:03:57.122Z,25.05
2022-09-26T07:06:24.552Z,24.67
2022-09-26T07:09:02.238Z,25.12
2022-09-26T07:11:56.298Z,23.67
2022-09-26T07:14:20.859Z,21.98
2022-09-26T07:16:51.907Z,22.02
2022-09-26T07:19:19.655Z,21.00
2022-09-26T07:21:48.100Z,20.30
2022-09-26T07:24:18.410Z,17.77
2022-09-26T07:26:46.002Z,18.98
2022-09-26T07:29:13.392Z,17.95
2022-09-26T07:31:41.113Z,18.05
2022-09-26T07:34:09.027Z,16.60
2022-09-26T07:36:37.162Z,16.33
2022-09-26T07:39:04.829Z,16.15
2022-09-26T07:41:33.086Z,15.70
2022-09-26T07:47:07.843Z,13.35
2022-09-26T07:49:54.344Z,13.15
2022-09-26T07:52:22.882Z,13.27
2022-09-26T07:54:51.295Z,12.68
2022-09-26T07:57:19.572Z,13.40
2022-09-26T07:59:50.369Z,13.20
2022-09-26T08:02:26.427Z,11.38
2022-09-26T08:05:00.182Z,11.65
2022-09-26T08:07:29.959Z,12.02
2022-09-26T08:09:59.052Z,11.38
2022-09-26T08:12:28.336Z,11.32
2022-09-26T08:14:56.369Z,11.80
2022-09-26T08:17:25.092Z,12.18
2022-09-26T08:19:52.672Z,12.37
2022-09-26T08:22:20.167Z,12.88
2022-09-26T08:24:50.828Z,12.88
2022-09-26T08:27:32.074Z,12.90
2022-09-26T08:30:00.733Z,12.93
2022-09-26T08:32:30.414Z,11.98
2022-09-26T08:34:58.242Z,13.20
2022-09-26T08:37:28.864Z,12.48
2022-09-26T08:39:57.758Z,12.75
2022-09-26T08:42:50.508Z,12.48
2022-09-26T08:45:47.954Z,11.50
2022-09-26T08:49:02.952Z,11.38
2022-09-26T08:51:34.128Z,11.88
2022-09-26T08:54:16.545Z,12.00
2022-09-26T08:56:47.952Z,11.57
2022-09-26T08:59:28.200Z,10.73
2022-09-26T09:02:00.288Z,11.02
2022-09-26T09:05:04.494Z,10.57
2022-09-26T09:07:32.466Z,10.45
2022-09-26T09:10:04.039Z,9.70
2022-09-26T09:13:09.921Z,9.93
2022-09-26T09:16:01.759Z,8.82
2022-09-26T09:18:49.928Z,9.00
2022-09-26T09:21:32.053Z,9.38
2022-09-26T09:24:18.592Z,8.85
2022-09-26T09:30:15.767Z,8.52
2022-09-26T09:32:59.234Z,8.63
2022-09-26T09:35:49.788Z,8.40
2022-09-26T09:38:23.328Z,8.10
2022-09-26T09:40:57.847Z,8.73
2022-09-26T09:43:54.413Z,8.05
2022-09-26T09:46:30.458Z,7.87
2022-09-26T09:48:58.448Z,9.40
2022-09-26T09:51:36.925Z,7.78
2022-09-26T09:54:30.871Z,7.53
2022-09-26T09:57:26.669Z,8.20
2022-09-26T10:00:09.786Z,8.60
2022-09-26T10:03:01.617Z,8.73
2022-09-26T10:05:42.563Z,7.57
2022-09-26T10:08:25.788Z,8.15
2022-09-26T10:11:08.398Z,8.00
2022-09-26T10:13:43.446Z,6.65
2022-09-26T10:16:16.770Z,6.55
2022-09-26T10:18:58.256Z,7.50
2022-09-26T10:21:48.709Z,7.30
2022-09-26T10:24:46.706Z,6.30
2022-09-26T10:27:22.521Z,6.60
2022-09-26T10:30:00.493Z,5.20
2022-09-26T10:32:29.286Z,5.87
2022-09-26T10:35:19.809Z,5.43
2022-09-26T10:38:01.609Z,6.10
2022-09-26T10:40:47.105Z,6.10
2022-09-26T10:43:41.246Z,5.45
2022-09-26T10:46:14.767Z,5.37
2022-09-26T10:48:59.568Z,4.70
2022-09-26T10:51:32.682Z,4.90
2022-09-26T10:54:13.461Z,4.37
2022-09-26T10:56:45.983Z,4.45
2022-09-26T10:59:16.587Z,3.58
2022-09-26T11:01:51.303Z,4.12
2022-09-26T11:04:39.888Z,3.85
2022-09-26T11:07:10.480Z,3.45
2022-09-26T11:09:38.408Z,3.87
2022-09-26T11:12:32.374Z,4.55
2022-09-26T11:15:19.866Z,5.82
2022-09-26T11:17:49.368Z,4.82
2022-09-26T11:20:38.155Z,4.43
2022-09-26T11:23:27.542Z,3.92
2022-09-26T11:26:29.732Z,3.65
2022-09-26T11:29:20.096Z,4.05
2022-09-26T11:31:49.022Z,3.92
2022-09-26T11:34:31.346Z,3.87
2022-09-26T11:37:31.016Z,3.80
2022-09-26T11:40:10.025Z,3.28
2022-09-26T11:42:54.821Z,3.15
2022-09-26T11:45:22.347Z,3.08
2022-09-26T11:48:13.363Z,3.15
2022-09-26T11:50:55.412Z,3.28
2022-09-26T11:53:48.780Z,4.30
2022-09-26T11:56:27.192Z,3.62
2022-09-26T11:59:02.229Z,3.55
2022-09-26T12:01:55.092Z,3.28
2022-09-26T12:04:37.632Z,4.18
2022-09-26T12:07:10.568Z,4.07
2022-09-26T12:10:06.260Z,3.70
2022-09-26T12:12:49.631Z,3.50
2022-09-26T12:15:43.414Z,3.22
2022-09-26T12:18:13.769Z,3.17
2022-09-26T12:21:02.808Z,3.35
2022-09-26T12:23:38.893Z,3.20
2022-09-26T12:26:17.921Z,3.92
2022-09-26T12:29:04.597Z,4.30
2022-09-26T12:31:50.507Z,4.03
2022-09-26T12:34:52.019Z,3.97
2022-09-26T12:37:39.219Z,3.58
2022-09-26T12:41:02.329Z,3.87
2022-09-26T12:43:58.990Z,3.83
2022-09-26T12:46:33.551Z,3.65
2022-09-26T12:49:07.591Z,4.43
2022-09-26T12:51:42.796Z,4.75
2022-09-26T12:54:34.138Z,3.78
2022-09-26T12:57:22.297Z,3.83
2022-09-26T13:00:13.011Z,5.05
2022-09-26T13:03:04.830Z,4.72
2022-09-26T13:06:08.932Z,3.67
2022-09-26T13:09:15.879Z,3.83
2022-09-26T13:11:58.359Z,3.87
2022-09-26T13:14:38.684Z,4.12
2022-09-26T13:17:15.488Z,3.70
2022-09-26T13:19:51.469Z,3.25
2022-09-26T13:22:28.525Z,3.50
2022-09-26T13:25:01.850Z,3.30
2022-09-26T13:27:36.150Z,3.15
2022-09-26T13:30:08.158Z,3.28
2022-09-26T13:32:47.960Z,2.95
2022-09-26T13:35:23.672Z,3.28
2022-09-26T13:38:08.285Z,3.17
2022-09-26T13:40:57.089Z,3.65
2022-09-26T13:43:43.739Z,3.80
2022-09-26T13:46:18.013Z,3.47
2022-09-26T13:48:58.910Z,3.92
2022-09-26T13:51:40.305Z,3.83
2022-09-26T13:54:20.413Z,4.68
2022-09-26T13:56:51.692Z,4.57
2022-09-26T13:59:19.349Z,4.40
2022-09-26T14:02:25.164Z,4.18
2022-09-26T14:04:54.306Z,4.05
2022-09-26T14:08:04.968Z,4.30
2022-09-26T14:10:34.715Z,4.65
2022-09-26T14:13:15.572Z,4.53
2022-09-26T14:15:49.456Z,4.15
2022-09-26T14:18:54.913Z,3.90
2022-09-26T14:21:46.388Z,4.00
2022-09-26T14:24:30.700Z,4.37
2022-09-26T14:27:10.533Z,4.15
2022-09-26T14:29:42.317Z,3.78
2022-09-26T14:32:10.345Z,4.00
2022-09-26T14:34:44.585Z,4.18
2022-09-26T14:37:26.904Z,3.70
2022-09-26T14:39:59.969Z,3.92
2022-09-26T14:42:31.715Z,3.85
2022-09-26T14:45:01.997Z,3.40
2022-09-26T14:47:40.064Z,3.60
2022-09-26T14:50:14.936Z,3.70
2022-09-26T14:52:53.288Z,3.53
2022-09-26T14:55:20.791Z,3.58
2022-09-26T14:57:48.636Z,3.37
2022-09-26T15:00:35.912Z,3.55
2022-09-26T15:03:27.469Z,3.10
2022-09-26T15:05:55.328Z,3.53
2022-09-26T15:08:26.496Z,3.22
2022-09-26T15:10:57.033Z,2.85
2022-09-26T15:13:27.259Z,2.92
2022-09-26T15:16:19.494Z,3.00
2022-09-26T15:21:28.519Z,2.70
2022-09-26T15:23:57.517Z,3.37
2022-09-26T15:26:27.483Z,2.95
2022-09-26T15:28:56.664Z,3.05
2022-09-26T15:31:27.029Z,3.25
2022-09-26T15:34:00.321Z,3.70
2022-09-26T15:36:32.215Z,3.30
2022-09-26T15:39:00.436Z,3.47
2022-09-26T15:41:46.817Z,3.62
2022-09-26T15:44:23.523Z,3.20
2022-09-26T15:46:51.227Z,3.55
2022-09-26T15:49:21.374Z,3.92
2022-09-26T15:51:53.221Z,3.22
2022-09-26T15:56:51.128Z,3.50
2022-09-26T15:59:39.995Z,3.90
2022-09-26T16:02:22.514Z,3.55
2022-09-26T16:04:52.037Z,3.92
2022-09-26T16:07:23.163Z,3.37
2022-09-26T16:09:51.464Z,3.45
2022-09-26T16:12:23.680Z,4.37
2022-09-26T16:15:00.197Z,13.00
2022-09-26T16:17:36.198Z,14.85
2022-09-26T16:20:09.654Z,19.85
2022-09-26T16:22:36.899Z,18.98
2022-09-26T16:25:23.104Z,23.20
2022-09-26T16:27:52.662Z,19.52
2022-09-26T16:30:23.667Z,17.65
2022-09-26T16:33:21.422Z,16.23
2022-09-26T16:35:49.091Z,15.05
2022-09-26T16:38:31.595Z,14.48
2022-09-26T16:41:09.666Z,14.98
2022-09-26T16:43:37.775Z,14.63
2022-09-26T16:46:14.744Z,15.13
2022-09-26T16:48:49.558Z,15.30
2022-09-26T16:51:39.798Z,17.27
2022-09-26T16:54:21.797Z,15.57
2022-09-26T16:56:52.873Z,15.57
2022-09-26T16:59:23.214Z,16.52
2022-09-26T17:01:54.120Z,16.77
2022-09-26T17:04:31.294Z,17.45
2022-09-26T17:06:59.743Z,21.42
2022-09-26T17:09:31.193Z,23.98
2022-09-26T17:12:27.760Z,18.37
2022-09-26T17:14:56.774Z,14.65
2022-09-26T17:17:30.533Z,14.52
2022-09-26T17:19:59.763Z,16.62
2022-09-26T17:22:28.428Z,26.70
2022-09-26T17:24:55.724Z,38.97
2022-09-26T17:27:27.028Z,30.83
2022-09-26T17:29:59.528Z,26.20
2022-09-26T17:35:25.847Z,48.25
2022-09-26T17:37:54.198Z,55.40
2022-09-26T17:40:24.596Z,59.22
2022-09-26T17:43:01.031Z,47.55
2022-09-26T17:45:36.425Z,42.70
2022-09-26T17:48:15.892Z,46.67
2022-09-26T17:50:43.520Z,42.30
2022-09-26T17:53:17.253Z,44.15
2022-09-26T17:55:44.821Z,42.00
2022-09-26T17:58:12.224Z,37.30
2022-09-26T18:00:40.330Z,33.85
2022-09-26T18:03:14.561Z,32.95
2022-09-26T18:05:46.235Z,31.48
2022-09-26T18:08:21.532Z,30.48
2022-09-26T18:13:24.989Z,28.23
2022-09-26T18:18:24.824Z,24.42
2022-09-26T18:20:52.785Z,25.42
2022-09-26T18:23:23.209Z,27.75
2022-09-26T18:25:52.243Z,25.52
2022-09-26T18:28:22.156Z,24.15
2022-09-26T18:30:56.883Z,29.05
2022-09-26T18:33:27.752Z,30.23
2022-09-26T18:35:55.497Z,25.90
2022-09-26T18:38:22.828Z,22.23
2022-09-26T18:40:55.113Z,21.90
2022-09-26T18:43:23.976Z,18.60
2022-09-26T18:45:52.066Z,16.08
2022-09-26T18:48:27.519Z,15.02
2022-09-26T18:50:57.293Z,15.40
2022-09-26T18:53:29.320Z,12.88
2022-09-26T18:58:43.816Z,12.68
2022-09-26T19:01:34.098Z,15.13
2022-09-26T19:04:04.383Z,12.90
2022-09-26T19:06:37.206Z,14.25
2022-09-26T19:09:07.690Z,13.15
2022-09-26T19:11:36.176Z,11.07
2022-09-26T19:14:18.151Z,9.57
2022-09-26T19:16:48.523Z,9.00
2022-09-26T19:19:16.843Z,8.43
2022-09-26T19:22:13.214Z,10.10
2022-09-26T19:25:00.431Z,10.90
2022-09-26T19:27:57.198Z,10.25
2022-09-26T19:30:24.841Z,8.77
2022-09-26T19:32:53.312Z,8.30
2022-09-26T19:35:30.344Z,9.05
2022-09-26T19:37:58.922Z,12.68
2022-09-26T19:40:27.725Z,16.23
2022-09-26T19:42:57.130Z,16.92
2022-09-26T19:45:25.944Z,18.40
2022-09-26T19:47:54.653Z,20.90
2022-09-26T19:50:25.325Z,16.50
2022-09-26T19:52:54.164Z,13.05
2022-09-26T19:55:26.638Z,14.80
2022-09-26T19:57:57.405Z,12.02
2022-09-26T20:00:26.240Z,9.20
2022-09-26T20:02:54.319Z,10.45
2022-09-26T20:05:24.553Z,17.60
2022-09-26T20:07:52.385Z,19.12
2022-09-26T20:10:25.131Z,18.15
2022-09-26T20:12:53.789Z,15.77
2022-09-26T20:15:21.420Z,11.35
2022-09-26T20:17:49.223Z,7.93
2022-09-26T20:20:18.658Z,7.03
2022-09-26T20:22:56.760Z,7.70
2022-09-26T20:25:30.952Z,7.80
2022-09-26T20:27:59.640Z,9.05
2022-09-26T20:30:45.562Z,9.38
2022-09-26T20:33:13.299Z,12.52
2022-09-26T20:35:45.312Z,11.40
2022-09-26T20:40:42.965Z,10.52
2022-09-26T20:43:15.174Z,9.38
2022-09-26T20:45:44.026Z,9.80
2022-09-26T20:48:23.212Z,8.82
2022-09-26T20:50:51.403Z,8.00
2022-09-26T20:53:20.090Z,7.03
2022-09-26T20:55:47.979Z,6.90
2022-09-26T20:58:15.527Z,6.72
2022-09-26T21:00:43.527Z,9.93
2022-09-26T21:03:12.366Z,12.68
2022-09-26T21:05:40.101Z,11.27
2022-09-26T21:08:17.924Z,9.77
2022-09-26T21:10:45.473Z,9.68
2022-09-26T21:13:12.788Z,9.18
2022-09-26T21:15:43.094Z,10.25
2022-09-26T21:18:22.572Z,15.77
2022-09-26T21:20:50.207Z,16.85
2022-09-26T21:23:19.964Z,14.27
2022-09-26T21:25:47.260Z,12.43
2022-09-26T21:28:26.275Z,12.35
2022-09-26T21:30:57.456Z,9.70
2022-09-26T21:33:24.797Z,10.27
2022-09-26T21:35:52.459Z,10.13
2022-09-26T21:38:20.499Z,10.35
2022-09-26T21:40:50.356Z,9.50
2022-09-26T21:43:20.085Z,9.52
2022-09-26T21:45:47.876Z,9.27
2022-09-26T21:48:15.786Z,9.75
2022-09-26T21:50:52.944Z,9.13
2022-09-26T21:53:37.640Z,9.88
2022-09-26T21:56:09.596Z,9.75
2022-09-26T22:01:05.342Z,10.05
2022-09-26T22:03:33.053Z,8.85
2022-09-26T22:06:04.872Z,7.68
2022-09-26T22:08:54.693Z,6.95
2022-09-26T22:11:22.039Z,6.85
2022-09-26T22:13:49.624Z,7.30
2022-09-26T22:16:17.079Z,7.32
2022-09-26T22:18:44.395Z,7.78
2022-09-26T22:21:12.607Z,7.55
2022-09-26T22:23:40.082Z,9.75
2022-09-26T22:26:07.802Z,12.15
2022-09-26T22:28:35.707Z,12.50
2022-09-26T22:31:04.251Z,13.32
2022-09-26T22:33:31.852Z,15.63
2022-09-26T22:36:03.126Z,11.82
2022-09-26T22:38:30.529Z,10.35
2022-09-26T22:41:03.121Z,7.60
2022-09-26T22:43:31.637Z,8.45
2022-09-26T22:46:07.579Z,9.55
2022-09-26T22:48:37.962Z,8.30
2022-09-26T22:51:05.873Z,7.72
2022-09-26T22:53:35.277Z,7.35
2022-09-26T22:56:11.303Z,6.93
2022-09-26T22:58:44.765Z,7.43
2022-09-26T23:01:18.179Z,6.95
2022-09-26T23:03:45.990Z,6.25
2022-09-26T23:06:13.714Z,6.50
2022-09-26T23:08:41.063Z,6.28
2022-09-26T23:11:11.455Z,6.10
2022-09-26T23:13:39.582Z,6.22
2022-09-26T23:16:08.889Z,5.97
2022-09-26T23:18:37.165Z,7.25
2022-09-26T23:21:08.685Z,6.70
2022-09-26T23:23:36.606Z,6.62
2022-09-26T23:26:05.749Z,6.25
2022-09-26T23:28:33.779Z,6.90
2022-09-26T23:31:08.690Z,5.93
2022-09-26T23:33:37.012Z,6.15
2022-09-26T23:36:05.352Z,6.10
2022-09-26T23:38:33.249Z,6.70
2022-09-26T23:41:00.936Z,6.85
2022-09-26T23:43:28.323Z,6.95
2022-09-26T23:45:55.719Z,6.78
2022-09-26T23:48:23.316Z,6.87
2022-09-26T23:50:50.736Z,6.90
2022-09-26T23:53:18.020Z,6.35
2022-09-26T23:55:45.611Z,6.95
2022-09-26T23:58:12.943Z,6.45
